Time;durP1;ratioP1;P1;durP2;ratioP2;P2;SDS_P1;SDS_P2;PMS_P1;PMS_P2;Temp;Humidity;BMP_temperature;BMP_pressure;BME280_temperature;BME280_humidity;BME280_pressure;Samples;Min_cycle;Max_cycle;Signal;HPM_P1;HPM_P2
2022/09/26 00:01:16;;;;;;;10.68;1.45;;;8.00;99.90;;;;;;5109675;27;20039;-66
2022/09/26 00:03:44;;;;;;;5.78;1.40;;;8.00;99.90;;;;;;5107536;27;20036;-68
2022/09/26 00:06:10;;;;;;;9.73;1.45;;;8.00;99.90;;;;;;5095878;28;20092;-68
2022/09/26 00:08:37;;;;;;;4.75;1.35;;;8.00;99.90;;;;;;5097872;27;20082;-68
2022/09/26 00:11:06;;;;;;;15.45;2.50;;;8.00;99.90;;;;;;5095637;28;20097;-69
2022/09/26 00:13:34;;;;;;;2.53;1.10;;;8.00;99.90;;;;;;5108614;27;20043;-69
2022/09/26 00:16:01;;;;;;;5.60;1.33;;;8.10;99.90;;;;;;5102526;28;20043;-69
2022/09/26 00:18:27;;;;;;;7.43;1.23;;;8.10;99.90;;;;;;5099029;27;20047;-68
2022/09/26 00:20:52;;;;;;;;;;;8.10;99.90;;;;;;5088019;28;20043;-68
2022/09/26 00:23:18;;;;;;;4.90;1.17;;;8.10;99.90;;;;;;5098099;28;19920;-66
2022/09/26 00:25:47;;;;;;;;;;;8.20;99.90;;;;;;5087424;28;20048;-67
2022/09/26 00:28:14;;;;;;;5.07;1.30;;;8.10;99.90;;;;;;5100375;28;20003;-68
2022/09/26 00:30:40;;;;;;;3.50;1.35;;;8.10;99.90;;;;;;5081044;27;20473;-68
2022/09/26 00:33:06;;;;;;;4.70;1.23;;;8.10;99.90;;;;;;5067384;28;20115;-68
2022/09/26 00:35:32;;;;;;;;;;;8.10;99.90;;;;;;5061848;28;20048;-68
2022/09/26 00:37:57;;;;;;;5.03;1.00;;;8.20;99.90;;;;;;5068009;28;20308;-69
2022/09/26 00:40:25;;;;;;;;;;;8.20;99.90;;;;;;5062535;28;20084;-69
2022/09/26 00:42:52;;;;;;;6.25;1.50;;;8.20;99.90;;;;;;5064958;28;19916;-69
2022/09/26 00:45:18;;;;;;;4.65;1.23;;;8.20;99.90;;;;;;5058426;28;20038;-66
2022/09/26 00:47:48;;;;;;;;;;;8.20;99.90;;;;;;5067447;28;20396;-67
2022/09/26 00:50:27;;;;;;;3.92;1.10;;;8.20;99.90;;;;;;5060648;28;19952;-68
2022/09/26 00:52:57;;;;;;;6.43;1.40;;;8.20;99.90;;;;;;5066910;28;20075;-68
2022/09/26 00:55:29;;;;;;;2.92;1.48;;;8.10;99.90;;;;;;5061189;28;20074;-68
2022/09/26 00:58:07;;;;;;;5.53;1.20;;;8.10;99.90;;;;;;5067975;28;20048;-68
2022/09/26 01:00:33;;;;;;;6.30;1.10;;;8.10;99.90;;;;;;5062930;28;20049;-67
2022/09/26 01:02:59;;;;;;;;;;;8.10;99.90;;;;;;5098927;28;20032;-66
2022/09/26 01:05:25;;;;;;;3.40;1.17;;;8.10;99.90;;;;;;5083921;28;19920;-67
2022/09/26 01:07:51;;;;;;;;;;;8.10;99.90;;;;;;5094515;28;20092;-68
2022/09/26 01:10:17;;;;;;;3.30;0.90;;;8.20;99.90;;;;;;5079688;28;20014;-69
2022/09/26 01:12:43;;;;;;;;;;;8.10;99.90;;;;;;5096148;28;20552;-68
2022/09/26 01:15:09;;;;;;;2.88;0.90;;;8.10;99.90;;;;;;5082378;28;20591;-69
2022/09/26 01:17:37;;;;;;;2.20;1.10;;;8.20;99.90;;;;;;5099191;28;20047;-69
2022/09/26 01:20:37;;;;;;;9.40;1.50;;;8.20;99.90;;;;;;5085059;28;20039;-68
2022/09/26 01:23:12;;;;;;;5.15;0.98;;;8.20;99.90;;;;;;5094051;28;20040;-68
2022/09/26 01:26:06;;;;;;;2.20;1.23;;;8.20;99.90;;;;;;5088899;28;20051;-66
2022/09/26 01:29:00;;;;;;;3.83;1.20;;;8.20;99.90;;;;;;5089944;28;20067;-67
2022/09/26 01:32:47;;;;;;;7.63;1.63;;;8.20;99.90;;;;;;5087154;28;20046;-68
2022/09/26 01:35:00;;;;;;;3.35;1.13;;;8.20;99.90;;;;;;5080127;28;20173;-68
2022/09/26 01:37:37;;;;;;;5.28;2.28;;;8.30;99.90;;;;;;5088352;28;20047;-68
2022/09/26 01:40:20;;;;;;;8.85;1.40;;;8.20;99.90;;;;;;5080243;28;20427;-68
2022/09/26 01:43:12;;;;;;;2.47;1.10;;;8.20;99.90;;;;;;5098520;28;20048;-68
2022/09/26 01:45:57;;;;;;;5.25;1.30;;;8.30;99.90;;;;;;5089056;28;20423;-68
2022/09/26 01:48:47;;;;;;;4.25;1.20;;;8.30;99.90;;;;;;5090229;28;20044;-69
2022/09/26 01:51:23;;;;;;;3.38;1.13;;;8.30;99.90;;;;;;5095334;28;20036;-67
2022/09/26 01:53:59;;;;;;;3.67;1.10;;;8.30;99.90;;;;;;5090870;28;20488;-69
2022/09/26 01:56:28;;;;;;;2.10;1.27;;;8.30;99.90;;;;;;5084521;28;20046;-69
2022/09/26 01:59:30;;;;;;;6.28;1.83;;;8.30;99.90;;;;;;5091938;28;20036;-67
2022/09/26 02:02:05;;;;;;;7.45;2.42;;;8.30;99.90;;;;;;5020433;28;20535;-67
2022/09/26 02:04:35;;;;;;;6.88;2.45;;;8.30;99.90;;;;;;5052888;28;20047;-69
2022/09/26 02:07:10;;;;;;;4.70;2.55;;;8.30;99.90;;;;;;5050049;28;20037;-68
2022/09/26 02:09:44;;;;;;;6.30;1.48;;;8.30;99.90;;;;;;5049557;28;20127;-66
2022/09/26 02:12:16;;;;;;;4.93;2.03;;;8.30;99.90;;;;;;5050386;28;20638;-68
2022/09/26 02:14:44;;;;;;;6.82;1.88;;;8.30;99.90;;;;;;5057823;28;20036;-68
2022/09/26 02:17:16;;;;;;;6.38;1.67;;;8.30;99.90;;;;;;5049162;28;20638;-69
2022/09/26 02:19:55;;;;;;;5.32;1.65;;;8.40;99.90;;;;;;5055933;28;20199;-68
2022/09/26 02:22:22;;;;;;;3.33;1.50;;;8.40;99.90;;;;;;5049545;28;20767;-70
2022/09/26 02:24:48;;;;;;;11.13;1.70;;;8.40;99.90;;;;;;5055846;28;20044;-69
2022/09/26 02:27:14;;;;;;;;;;;8.40;99.90;;;;;;5046643;28;20048;-69
2022/09/26 02:29:39;;;;;;;4.28;1.55;;;8.30;99.90;;;;;;5050002;28;19921;-69
2022/09/26 02:32:11;;;;;;;;;;;8.30;99.90;;;;;;5050098;28;20043;-68
2022/09/26 02:34:39;;;;;;;8.63;2.05;;;8.30;99.90;;;;;;5058951;28;19921;-68
2022/09/26 02:37:06;;;;;;;8.32;1.85;;;8.30;99.90;;;;;;5065864;28;20068;-66
2022/09/26 02:39:32;;;;;;;9.25;2.58;;;8.30;99.90;;;;;;5059521;28;20060;-66
2022/09/26 02:42:07;;;;;;;;;;;8.30;99.90;;;;;;5057475;28;20063;-68
2022/09/26 02:44:48;;;;;;;5.18;2.08;;;8.30;99.90;;;;;;5061345;28;19916;-68
2022/09/26 02:47:42;;;;;;;5.45;2.15;;;8.40;99.90;;;;;;5059019;28;20032;-66
2022/09/26 02:50:23;;;;;;;3.42;2.10;;;8.40;99.90;;;;;;5054903;28;20036;-68
2022/09/26 02:53:12;;;;;;;7.28;2.47;;;8.40;99.90;;;;;;5064689;28;20028;-69
2022/09/26 02:56:02;;;;;;;14.23;2.85;;;8.30;99.90;;;;;;5059128;28;20044;-68
2022/09/26 02:58:36;;;;;;;11.65;2.97;;;8.30;99.90;;;;;;5063861;28;20044;-68
2022/09/26 03:01:26;;;;;;;5.30;2.80;;;8.30;99.90;;;;;;5063364;28;20028;-68
2022/09/26 03:04:04;;;;;;;10.95;4.30;;;8.30;99.90;;;;;;5062224;28;20115;-66
2022/09/26 03:06:40;;;;;;;14.98;4.55;;;8.20;99.90;;;;;;5062135;28;20080;-69
2022/09/26 03:09:07;;;;;;;9.40;4.10;;;8.30;99.90;;;;;;5054005;28;20075;-68
2022/09/26 03:11:34;;;;;;;14.27;3.42;;;8.30;99.90;;;;;;5061122;28;20048;-69
2022/09/26 03:14:02;;;;;;;7.15;3.20;;;8.30;99.90;;;;;;5061186;28;20450;-66
2022/09/26 03:16:40;;;;;;;6.10;3.05;;;8.30;99.90;;;;;;5062617;28;20044;-67
2022/09/26 03:19:25;;;;;;;5.07;2.75;;;8.30;99.90;;;;;;5054010;28;20123;-67
2022/09/26 03:21:51;;;;;;;11.88;3.22;;;8.30;99.90;;;;;;5063379;28;20462;-68
2022/09/26 03:24:17;;;;;;;;;;;8.30;99.90;;;;;;5059678;28;20124;-68
2022/09/26 03:26:43;;;;;;;8.00;3.67;;;8.30;99.90;;;;;;5054566;28;20007;-68
2022/09/26 03:29:08;;;;;;;13.90;3.10;;;8.30;99.90;;;;;;5056456;28;20049;-68
2022/09/26 03:31:34;;;;;;;;;;;8.30;99.90;;;;;;5060224;28;20059;-68
2022/09/26 03:33:59;;;;;;;5.18;2.58;;;8.30;99.90;;;;;;5063159;28;19999;-68
2022/09/26 03:36:26;;;;;;;9.55;3.30;;;8.30;99.90;;;;;;5055032;28;20045;-68
2022/09/26 03:38:52;;;;;;;9.10;3.88;;;8.30;99.90;;;;;;5063631;28;20086;-67
2022/09/26 03:41:18;;;;;;;;;;;8.40;99.90;;;;;;5056163;28;20040;-67
2022/09/26 03:43:44;;;;;;;16.45;4.13;;;8.40;99.90;;;;;;5061872;28;20281;-68
2022/09/26 03:46:14;;;;;;;;;;;8.40;99.90;;;;;;5059027;28;20055;-68
2022/09/26 03:48:40;;;;;;;6.35;3.08;;;8.40;99.90;;;;;;5063641;28;19967;-67
2022/09/26 03:51:12;;;;;;;7.07;3.53;;;8.40;99.90;;;;;;5056293;28;20082;-69
2022/09/26 03:53:41;;;;;;;15.45;4.40;;;8.40;99.90;;;;;;5065275;28;20496;-68
2022/09/26 03:56:12;;;;;;;9.10;3.10;;;8.40;99.90;;;;;;5067717;28;20174;-67
2022/09/26 03:58:38;;;;;;;12.07;3.85;;;8.40;99.90;;;;;;5066994;28;20090;-67
2022/09/26 04:01:06;;;;;;;8.63;3.55;;;8.40;99.90;;;;;;5058636;28;20040;-66
2022/09/26 04:03:34;;;;;;;8.18;3.17;;;8.40;99.90;;;;;;5065530;28;20094;-66
2022/09/26 04:06:00;;;;;;;13.00;4.53;;;8.40;99.90;;;;;;5063635;28;20044;-67
2022/09/26 04:08:25;;;;;;;;;;;8.40;99.90;;;;;;5062183;28;20029;-68
2022/09/26 04:10:51;;;;;;;5.30;3.35;;;8.40;99.90;;;;;;5059227;28;19917;-68
2022/09/26 04:13:16;;;;;;;;;;;8.40;99.90;;;;;;5065350;28;20024;-66
2022/09/26 04:15:42;;;;;;;6.20;2.95;;;8.40;99.90;;;;;;5057136;28;19924;-68
2022/09/26 04:18:07;;;;;;;;;;;8.50;99.90;;;;;;5068398;28;20028;-69
2022/09/26 04:20:33;;;;;;;6.93;3.40;;;8.40;99.90;;;;;;5059771;28;19938;-66
2022/09/26 04:22:58;;;;;;;14.60;3.50;;;8.40;99.90;;;;;;5065779;28;20034;-67
2022/09/26 04:25:24;;;;;;;;;;;8.40;99.90;;;;;;5063686;28;20040;-68
2022/09/26 04:27:49;;;;;;;6.60;3.05;;;8.50;99.90;;;;;;5067459;28;19920;-67
2022/09/26 04:30:15;;;;;;;8.93;4.10;;;8.50;99.90;;;;;;5063096;28;20047;-68
2022/09/26 04:32:41;;;;;;;12.10;4.70;;;8.50;99.90;;;;;;5058043;28;20123;-68
2022/09/26 04:35:06;;;;;;;;;;;8.50;99.90;;;;;;5065513;28;20766;-68
2022/09/26 04:37:35;;;;;;;13.60;4.63;;;8.50;99.90;;;;;;5067836;28;19921;-68
2022/09/26 04:40:02;;;;;;;11.57;4.90;;;8.50;99.90;;;;;;5060731;28;20085;-67
2022/09/26 04:42:33;;;;;;;11.00;3.72;;;8.50;99.90;;;;;;5065385;28;20051;-67
2022/09/26 04:44:58;;;;;;;12.45;4.88;;;8.60;99.90;;;;;;5065473;28;20028;-68
2022/09/26 04:47:23;;;;;;;;;;;8.60;99.90;;;;;;5060144;28;20858;-68
2022/09/26 04:49:49;;;;;;;12.25;6.60;;;8.60;99.90;;;;;;5057074;28;19916;-68
2022/09/26 04:52:15;;;;;;;;;;;8.60;99.90;;;;;;5062284;28;20043;-67
2022/09/26 04:54:40;;;;;;;10.98;6.60;;;8.70;99.90;;;;;;5059038;28;19931;-67
2022/09/26 04:57:06;;;;;;;;;;;8.70;99.90;;;;;;5058971;28;20611;-65
2022/09/26 04:59:31;;;;;;;14.00;6.57;;;8.60;99.90;;;;;;5061118;28;19920;-67
2022/09/26 05:01:57;;;;;;;;;;;8.70;99.90;;;;;;5065972;28;20111;-71
2022/09/26 05:04:22;;;;;;;14.00;5.85;;;8.60;99.90;;;;;;5064566;28;19974;-66
2022/09/26 05:06:48;;;;;;;11.52;7.05;;;8.70;99.90;;;;;;5060004;28;20416;-66
2022/09/26 05:09:14;;;;;;;;;;;8.60;99.90;;;;;;5065142;28;20036;-66
2022/09/26 05:11:40;;;;;;;17.63;7.45;;;8.70;99.90;;;;;;5060664;28;19927;-66
2022/09/26 05:14:07;;;;;;;;;;;8.60;99.90;;;;;;5054741;28;20039;-68
2022/09/26 05:16:33;;;;;;;20.50;9.70;;;8.60;99.90;;;;;;5058966;28;19985;-68
2022/09/26 05:18:59;;;;;;;;;;;8.60;99.90;;;;;;5064974;28;20505;-71
2022/09/26 05:21:24;;;;;;;19.75;9.90;;;8.60;99.90;;;;;;5061138;28;19917;-68
2022/09/26 05:26:37;;;;;;;17.60;10.52;;;8.60;99.90;;;;;;5064892;28;20044;-69
2022/09/26 05:29:05;;;;;;;18.08;11.05;;;8.60;99.90;;;;;;5063957;28;20036;-70
2022/09/26 05:31:35;;;;;;;16.83;11.52;;;8.60;99.90;;;;;;5063537;28;20687;-69
2022/09/26 05:34:06;;;;;;;16.45;11.43;;;8.60;99.90;;;;;;5056240;28;20051;-66
2022/09/26 05:36:32;;;;;;;23.23;12.27;;;8.60;99.90;;;;;;5056948;28;20036;-67
2022/09/26 05:38:58;;;;;;;17.83;10.48;;;8.60;99.90;;;;;;5064225;28;20036;-65
2022/09/26 05:41:30;;;;;;;14.90;9.18;;;8.60;99.90;;;;;;5059630;28;20491;-66
2022/09/26 05:43:56;;;;;;;17.15;9.70;;;8.60;99.90;;;;;;5061789;28;20397;-68
2022/09/26 05:46:23;;;;;;;19.25;9.23;;;8.70;99.90;;;;;;5054413;28;20052;-67
2022/09/26 05:48:49;;;;;;;17.08;8.73;;;8.70;99.90;;;;;;5057725;28;20032;-67
2022/09/26 05:51:19;;;;;;;11.70;8.63;;;8.70;99.90;;;;;;5058311;28;20101;-68
2022/09/26 05:53:46;;;;;;;18.58;8.20;;;8.70;99.90;;;;;;5063264;28;20037;-68
2022/09/26 05:56:13;;;;;;;14.63;7.70;;;8.80;99.90;;;;;;5059926;28;20051;-69
2022/09/26 05:58:40;;;;;;;16.45;7.90;;;8.70;99.90;;;;;;5064182;28;20045;-66
2022/09/26 06:01:11;;;;;;;12.93;8.00;;;8.80;99.90;;;;;;5061250;28;20447;-68
2022/09/26 06:03:37;;;;;;;12.80;7.97;;;8.80;99.90;;;;;;5062598;28;20044;-68
2022/09/26 06:06:07;;;;;;;12.52;7.32;;;8.80;99.90;;;;;;5060493;28;20404;-68
2022/09/26 06:08:34;;;;;;;13.25;6.47;;;8.90;99.90;;;;;;5063372;28;20492;-69
2022/09/26 06:11:15;;;;;;;12.27;6.88;;;8.90;99.90;;;;;;5062207;28;20036;-68
2022/09/26 06:13:45;;;;;;;10.65;6.75;;;8.90;99.90;;;;;;5060724;28;20040;-68
2022/09/26 06:16:17;;;;;;;16.27;6.70;;;9.00;99.90;;;;;;5057818;28;20075;-67
2022/09/26 06:18:43;;;;;;;10.57;6.05;;;9.10;99.90;;;;;;5059779;28;20546;-67
2022/09/26 06:21:11;;;;;;;15.05;6.40;;;9.10;99.90;;;;;;5055991;28;20061;-67
2022/09/26 06:23:37;;;;;;;17.00;5.90;;;9.10;99.90;;;;;;5055132;28;20068;-68
2022/09/26 06:26:03;;;;;;;;;;;9.10;99.90;;;;;;5058114;28;20086;-69
2022/09/26 06:28:30;;;;;;;8.70;5.05;;;9.10;99.90;;;;;;5056596;28;19960;-70
2022/09/26 06:30:56;;;;;;;12.48;5.53;;;9.20;99.90;;;;;;5053573;28;20033;-69
2022/09/26 06:33:22;;;;;;;8.63;5.60;;;9.20;99.90;;;;;;5057745;28;20044;-68
2022/09/26 06:36:02;;;;;;;11.60;5.53;;;9.20;99.90;;;;;;5053445;28;20056;-68
2022/09/26 06:38:28;;;;;;;10.25;5.13;;;9.30;99.90;;;;;;5056999;28;20052;-69
2022/09/26 06:40:54;;;;;;;7.50;4.75;;;9.30;99.90;;;;;;5055916;28;20098;-69
2022/09/26 06:43:20;;;;;;;10.07;5.25;;;9.30;99.90;;;;;;5060777;28;20045;-69
2022/09/26 06:45:47;;;;;;;;;;;9.30;99.90;;;;;;5057277;28;20056;-68
2022/09/26 06:48:14;;;;;;;9.68;4.97;;;9.30;99.90;;;;;;5058519;28;19916;-68
2022/09/26 06:50:40;;;;;;;8.18;5.07;;;9.40;99.90;;;;;;5052462;28;20400;-68
2022/09/26 06:53:05;;;;;;;;;;;9.30;99.90;;;;;;5063063;28;20123;-70
2022/09/26 06:55:31;;;;;;;11.60;6.22;;;9.30;99.90;;;;;;5054360;28;19921;-68
2022/09/26 06:57:57;;;;;;;11.05;5.32;;;9.20;99.90;;;;;;5057677;28;20119;-65
2022/09/26 07:00:23;;;;;;;;;;;9.30;99.90;;;;;;5057360;28;20051;-68
2022/09/26 07:02:53;;;;;;;7.70;4.90;;;9.20;99.90;;;;;;5056775;28;20671;-67
2022/09/26 07:05:20;;;;;;;10.13;5.80;;;9.20;99.90;;;;;;5056129;28;20044;-67
2022/09/26 07:07:47;;;;;;;14.13;5.28;;;9.30;99.90;;;;;;5061467;28;20041;-68
2022/09/26 07:10:17;;;;;;;11.05;4.72;;;9.30;99.90;;;;;;5061556;28;20043;-68
2022/09/26 07:12:46;;;;;;;9.00;4.72;;;9.30;99.90;;;;;;5053941;28;20045;-68
2022/09/26 07:15:19;;;;;;;7.32;4.72;;;9.30;99.90;;;;;;5063319;28;20033;-68
2022/09/26 07:17:47;;;;;;;12.60;4.93;;;9.30;99.90;;;;;;5063747;28;20032;-69
2022/09/26 07:20:19;;;;;;;8.13;4.63;;;9.30;99.90;;;;;;5055714;28;20494;-68
2022/09/26 07:22:45;;;;;;;11.00;6.07;;;9.20;99.90;;;;;;5064256;28;20047;-69
2022/09/26 07:25:12;;;;;;;10.73;4.60;;;9.30;99.90;;;;;;5058776;28;20036;-68
2022/09/26 07:27:39;;;;;;;8.45;4.60;;;9.30;99.90;;;;;;5060957;28;20137;-68
2022/09/26 07:30:07;;;;;;;10.00;4.35;;;9.30;99.90;;;;;;5064815;28;20384;-69
2022/09/26 07:32:35;;;;;;;5.25;3.50;;;9.30;99.90;;;;;;5065568;28;20040;-69
2022/09/26 07:35:02;;;;;;;6.70;3.60;;;9.30;99.90;;;;;;5061839;28;20047;-68
2022/09/26 07:37:28;;;;;;;8.27;3.13;;;9.30;99.90;;;;;;5066511;28;20738;-68
2022/09/26 07:39:54;;;;;;;8.02;3.40;;;9.40;99.90;;;;;;5065854;28;20044;-69
2022/09/26 07:42:20;;;;;;;;;;;9.40;99.90;;;;;;5068095;28;20043;-69
2022/09/26 07:44:47;;;;;;;10.20;3.08;;;9.40;99.90;;;;;;5058343;28;19927;-68
2022/09/26 07:50:10;;;;;;;8.15;3.25;;;9.40;99.90;;;;;;5059114;28;20567;-69
2022/09/26 07:52:36;;;;;;;9.07;2.67;;;9.40;99.90;;;;;;5066615;28;20068;-69
2022/09/26 07:55:02;;;;;;;5.75;2.78;;;9.30;99.90;;;;;;5065640;28;20548;-68
2022/09/26 07:57:31;;;;;;;2.72;1.92;;;9.30;99.90;;;;;;5067006;28;20123;-68
2022/09/26 07:59:57;;;;;;;6.93;2.75;;;9.40;99.90;;;;;;5063927;28;20040;-67
2022/09/26 08:02:24;;;;;;;;;;;9.30;99.90;;;;;;5065739;28;20550;-68
2022/09/26 08:04:53;;;;;;;4.82;2.60;;;9.30;99.90;;;;;;5061148;28;19917;-69
2022/09/26 08:07:20;;;;;;;4.75;2.30;;;9.50;99.90;;;;;;5063306;28;20084;-69
2022/09/26 08:09:45;;;;;;;4.60;2.30;;;9.90;99.90;;;;;;5065652;28;20059;-70
2022/09/26 08:12:12;;;;;;;;;;;10.50;99.90;;;;;;5065866;28;20037;-69
2022/09/26 08:14:38;;;;;;;4.85;2.08;;;11.10;99.90;;;;;;5058247;28;19942;-69
2022/09/26 08:17:04;;;;;;;6.55;1.80;;;11.10;99.90;;;;;;5067111;28;20122;-69
2022/09/26 08:19:30;;;;;;;;;;;10.80;99.90;;;;;;5059041;28;20064;-68
2022/09/26 08:21:56;;;;;;;8.38;1.80;;;10.70;99.90;;;;;;5065284;28;20107;-68
2022/09/26 08:24:21;;;;;;;6.03;2.22;;;10.50;99.90;;;;;;5065489;28;20504;-68
2022/09/26 08:26:47;;;;;;;;;;;10.40;99.90;;;;;;5066821;28;20044;-69
2022/09/26 08:29:13;;;;;;;3.85;1.50;;;10.50;99.90;;;;;;5065688;28;20561;-68
2022/09/26 08:31:39;;;;;;;5.20;2.40;;;10.50;99.90;;;;;;5055856;28;20094;-68
2022/09/26 08:34:05;;;;;;;;;;;10.50;99.90;;;;;;5066412;28;20033;-69
2022/09/26 08:36:31;;;;;;;5.82;1.63;;;10.50;99.90;;;;;;5058417;28;19927;-68
2022/09/26 08:38:58;;;;;;;4.10;1.90;;;10.50;99.90;;;;;;5064406;28;20048;-69
2022/09/26 08:41:43;;;;;;;3.13;1.75;;;10.40;99.90;;;;;;5058924;28;20048;-68
2022/09/26 08:44:29;;;;;;;4.20;1.75;;;10.30;99.90;;;;;;5061363;28;20485;-69
2022/09/26 08:47:00;;;;;;;4.60;1.92;;;10.50;99.90;;;;;;5067033;28;20084;-68
2022/09/26 08:49:58;;;;;;;4.65;1.83;;;10.50;99.90;;;;;;5065225;28;20032;-68
2022/09/26 08:52:35;;;;;;;5.40;2.10;;;10.70;99.90;;;;;;5064282;28;20090;-68
2022/09/26 08:55:04;;;;;;;;;;;10.60;99.90;;;;;;5053199;28;20116;-70
2022/09/26 08:57:41;;;;;;;6.32;2.35;;;10.60;99.90;;;;;;5064660;28;19951;-69
2022/09/26 09:00:19;;;;;;;3.35;1.67;;;10.80;99.90;;;;;;5054064;28;20041;-69
2022/09/26 09:03:06;;;;;;;7.05;1.52;;;10.90;99.90;;;;;;5093732;28;20044;-70
2022/09/26 09:05:41;;;;;;;4.53;1.45;;;11.00;99.90;;;;;;5084188;27;20826;-69
2022/09/26 09:08:34;;;;;;;2.92;1.67;;;11.00;99.90;;;;;;5082914;28;20133;-69
2022/09/26 09:11:25;;;;;;;3.83;1.58;;;11.00;99.90;;;;;;5084555;28;20035;-68
2022/09/26 09:13:58;;;;;;;5.80;1.58;;;11.10;99.90;;;;;;5096708;28;20032;-68
2022/09/26 09:17:04;;;;;;;6.47;1.60;;;10.90;99.90;;;;;;5093830;28;20376;-68
2022/09/26 09:19:54;;;;;;;6.03;2.08;;;10.70;99.90;;;;;;5075531;28;20155;-68
2022/09/26 09:22:40;;;;;;;3.47;1.40;;;10.70;99.90;;;;;;5090829;28;20500;-68
2022/09/26 09:25:22;;;;;;;3.38;1.80;;;10.60;99.90;;;;;;5082246;28;20068;-69
2022/09/26 09:28:13;;;;;;;8.07;1.83;;;10.50;99.90;;;;;;5091486;28;20134;-68
2022/09/26 09:30:45;;;;;;;6.38;1.52;;;10.50;99.90;;;;;;5088381;27;20115;-68
2022/09/26 09:33:16;;;;;;;7.13;1.85;;;10.50;99.90;;;;;;5097101;28;20040;-69
2022/09/26 09:35:50;;;;;;;5.97;1.50;;;10.50;99.90;;;;;;5091874;28;20074;-65
2022/09/26 09:38:19;;;;;;;6.38;1.60;;;10.50;99.90;;;;;;5086213;28;20072;-69
2022/09/26 09:41:23;;;;;;;7.22;1.40;;;10.50;99.90;;;;;;5092898;28;20046;-68
2022/09/26 09:43:54;;;;;;;5.25;1.67;;;10.50;99.90;;;;;;5097600;28;20040;-69
2022/09/26 09:46:27;;;;;;;6.10;1.67;;;10.40;99.90;;;;;;5093644;28;20044;-68
2022/09/26 09:49:08;;;;;;;4.13;1.30;;;10.40;99.90;;;;;;5091974;28;20032;-69
2022/09/26 09:52:11;;;;;;;9.70;1.50;;;10.40;99.90;;;;;;5099888;28;20042;-69
2022/09/26 09:54:45;;;;;;;4.68;1.85;;;10.40;99.90;;;;;;5085259;28;20118;-68
2022/09/26 09:57:26;;;;;;;6.35;1.65;;;10.40;99.90;;;;;;5099026;28;20056;-68
2022/09/26 10:00:07;;;;;;;4.90;1.70;;;10.40;99.90;;;;;;5089991;28;20040;-68
2022/09/26 10:02:32;;;;;;;8.57;1.60;;;10.40;99.90;;;;;;5090517;27;20113;-70
2022/09/26 10:05:17;;;;;;;;;;;10.40;99.90;;;;;;5078020;28;20081;-68
2022/09/26 10:07:49;;;;;;;6.47;1.30;;;10.40;99.90;;;;;;5081898;28;19925;-67
2022/09/26 10:10:36;;;;;;;4.07;1.42;;;10.40;99.90;;;;;;5073949;28;20040;-66
2022/09/26 10:13:04;;;;;;;5.43;1.50;;;10.40;99.90;;;;;;5090297;28;20050;-67
2022/09/26 10:15:31;;;;;;;5.93;1.85;;;10.50;99.90;;;;;;5076766;28;20071;-69
2022/09/26 10:18:06;;;;;;;7.20;1.85;;;10.50;99.90;;;;;;5097980;28;20043;-67
2022/09/26 10:20:52;;;;;;;5.60;1.63;;;10.50;99.90;;;;;;5076728;28;20049;-67
2022/09/26 10:23:34;;;;;;;7.80;1.70;;;10.50;99.90;;;;;;5085558;28;20063;-68
2022/09/26 10:26:06;;;;;;;4.13;1.77;;;10.50;99.90;;;;;;5087292;28;20174;-67
2022/09/26 10:28:42;;;;;;;5.38;1.75;;;10.50;99.90;;;;;;5084009;28;20209;-69
2022/09/26 10:31:10;;;;;;;4.72;1.92;;;10.60;99.90;;;;;;5070260;28;20048;-68
2022/09/26 10:33:42;;;;;;;4.03;1.70;;;10.60;99.90;;;;;;5076531;28;20040;-67
2022/09/26 10:36:18;;;;;;;4.45;1.48;;;10.70;99.90;;;;;;5074145;28;20148;-67
2022/09/26 10:41:39;;;;;;;3.55;1.23;;;10.70;99.90;;;;;;5075661;28;20044;-67
2022/09/26 10:44:20;;;;;;;5.20;1.60;;;10.60;99.90;;;;;;5072937;28;20097;-67
2022/09/26 10:46:50;;;;;;;3.10;1.45;;;10.70;99.90;;;;;;5078448;28;20040;-67
2022/09/26 10:49:17;;;;;;;3.28;1.40;;;10.60;99.90;;;;;;5076164;28;20036;-67
2022/09/26 10:51:53;;;;;;;5.45;1.55;;;10.60;99.90;;;;;;5080329;28;20036;-67
2022/09/26 10:54:22;;;;;;;5.70;1.77;;;10.50;99.90;;;;;;5077785;28;20112;-67
2022/09/26 10:56:57;;;;;;;4.88;1.63;;;10.60;99.90;;;;;;5084177;28;20039;-68
2022/09/26 10:59:29;;;;;;;3.38;1.50;;;10.60;99.90;;;;;;5075586;28;20044;-67
2022/09/26 11:01:57;;;;;;;5.60;2.47;;;10.60;99.90;;;;;;5085100;28;20043;-67
2022/09/26 11:07:23;;;;;;;3.15;1.40;;;10.60;99.90;;;;;;5090806;28;20135;-68
2022/09/26 11:09:50;;;;;;;6.07;1.33;;;10.60;99.90;;;;;;5078798;28;20393;-68
2022/09/26 11:12:28;;;;;;;4.38;1.38;;;10.60;99.90;;;;;;5087674;28;20046;-67
2022/09/26 11:15:05;;;;;;;8.00;1.60;;;10.60;99.90;;;;;;5091041;28;20044;-67
2022/09/26 11:17:51;;;;;;;3.20;1.15;;;10.70;99.90;;;;;;5095336;28;20050;-68
2022/09/26 11:20:28;;;;;;;2.47;1.10;;;10.60;99.90;;;;;;5087980;28;20024;-69
2022/09/26 11:23:21;;;;;;;3.30;1.15;;;10.70;99.90;;;;;;5092667;28;20052;-67
2022/09/26 11:26:09;;;;;;;4.13;1.25;;;10.70;99.90;;;;;;5092467;28;20504;-69
2022/09/26 11:28:43;;;;;;;2.42;1.15;;;10.90;99.90;;;;;;5089807;28;20093;-68
2022/09/26 11:31:41;;;;;;;2.22;1.10;;;10.90;99.90;;;;;;5093029;28;20036;-68
2022/09/26 11:34:12;;;;;;;2.15;1.05;;;10.90;99.90;;;;;;5066796;28;20044;-68
2022/09/26 11:37:09;;;;;;;3.55;1.20;;;10.90;99.90;;;;;;5093724;28;20392;-68
2022/09/26 11:39:35;;;;;;;;;;;10.80;99.90;;;;;;5086908;28;20491;-67
2022/09/26 11:42:12;;;;;;;5.60;1.00;;;10.90;99.90;;;;;;5097053;28;19920;-67
2022/09/26 11:44:44;;;;;;;3.72;0.70;;;11.00;99.90;;;;;;5088333;28;20050;-68
2022/09/26 11:47:40;;;;;;;3.03;1.20;;;11.00;99.90;;;;;;5095379;28;20047;-67
2022/09/26 11:50:28;;;;;;;1.77;1.00;;;11.00;99.90;;;;;;5078103;28;20637;-67
2022/09/26 11:53:16;;;;;;;3.15;1.10;;;11.00;99.90;;;;;;5097282;28;20050;-68
2022/09/26 11:56:09;;;;;;;2.17;1.00;;;10.80;99.90;;;;;;5079606;28;20098;-67
2022/09/26 11:58:50;;;;;;;2.47;1.23;;;10.70;99.90;;;;;;5093349;28;20122;-67
2022/09/26 12:01:43;;;;;;;2.65;1.23;;;10.70;99.90;;;;;;5092549;28;20044;-67
2022/09/26 12:04:18;;;;;;;1.23;0.80;;;10.80;99.90;;;;;;5081882;28;20040;-68
2022/09/26 12:07:01;;;;;;;1.92;0.90;;;10.90;99.90;;;;;;5084907;28;20036;-67
2022/09/26 12:09:44;;;;;;;1.58;1.00;;;10.80;99.90;;;;;;5088310;28;20119;-67
2022/09/26 12:12:23;;;;;;;6.68;1.10;;;10.80;99.90;;;;;;5083840;28;20043;-68
2022/09/26 12:15:01;;;;;;;2.33;0.98;;;10.70;99.90;;;;;;5092097;28;20045;-68
2022/09/26 12:18:04;;;;;;;3.25;0.90;;;10.60;99.90;;;;;;5093904;28;20094;-68
2022/09/26 12:20:48;;;;;;;3.72;0.88;;;10.50;99.90;;;;;;5085781;28;20140;-68
2022/09/26 12:23:29;;;;;;;3.38;0.85;;;10.40;99.90;;;;;;5074775;28;20633;-67
2022/09/26 12:26:07;;;;;;;1.08;0.90;;;10.40;99.90;;;;;;5084626;28;20396;-67
2022/09/26 12:28:58;;;;;;;1.60;0.80;;;10.40;99.90;;;;;;5082705;28;20072;-67
2022/09/26 12:31:38;;;;;;;2.08;0.90;;;10.40;99.90;;;;;;5080125;28;20040;-67
2022/09/26 12:34:29;;;;;;;2.85;0.88;;;10.30;99.90;;;;;;5076622;28;20043;-68
2022/09/26 12:37:10;;;;;;;1.65;0.90;;;10.30;99.90;;;;;;5091400;28;20048;-68
2022/09/26 12:42:07;;;;;;;3.65;1.00;;;10.30;99.90;;;;;;5045720;28;20052;-67
2022/09/26 12:44:51;;;;;;;;;;;10.30;99.90;;;;;;5029020;28;20049;-67
2022/09/26 12:47:22;;;;;;;3.00;0.80;;;10.20;99.90;;;;;;5030015;28;20447;-68
2022/09/26 12:50:15;;;;;;;1.48;0.90;;;10.20;99.90;;;;;;5018153;28;20056;-68
2022/09/26 12:53:20;;;;;;;1.40;0.70;;;10.10;99.90;;;;;;5036757;28;20111;-68
2022/09/26 12:55:55;;;;;;;1.35;0.75;;;10.10;99.90;;;;;;5029596;28;20042;-67
2022/09/26 12:58:47;;;;;;;2.03;0.60;;;10.00;99.90;;;;;;5041272;28;20251;-67
2022/09/26 13:01:24;;;;;;;1.80;0.85;;;9.90;99.90;;;;;;5025153;28;20045;-67
2022/09/26 13:04:04;;;;;;;1.17;0.70;;;9.80;99.90;;;;;;5019113;28;20048;-68
2022/09/26 13:06:44;;;;;;;2.80;1.05;;;9.80;99.90;;;;;;5028379;28;20052;-68
2022/09/26 13:09:29;;;;;;;1.17;0.73;;;9.90;99.90;;;;;;5023238;28;20038;-68
2022/09/26 13:12:16;;;;;;;1.80;0.80;;;9.90;99.90;;;;;;5035488;28;20051;-68
2022/09/26 13:14:51;;;;;;;3.28;0.90;;;9.90;99.90;;;;;;5029381;28;20382;-68
2022/09/26 13:17:23;;;;;;;1.17;0.90;;;9.90;99.90;;;;;;5038227;28;20453;-69
2022/09/26 13:19:51;;;;;;;4.95;1.17;;;9.90;99.90;;;;;;5030563;28;20069;-68
2022/09/26 13:22:33;;;;;;;1.38;0.88;;;9.90;99.90;;;;;;5035350;28;20071;-67
2022/09/26 13:25:04;;;;;;;1.73;0.90;;;9.90;99.90;;;;;;5018693;28;20064;-67
2022/09/26 13:27:37;;;;;;;2.42;1.13;;;9.90;99.90;;;;;;5037663;28;20045;-67
2022/09/26 13:30:07;;;;;;;1.38;1.00;;;9.90;99.90;;;;;;5029790;28;20073;-67
2022/09/26 13:32:55;;;;;;;2.35;1.20;;;9.90;99.90;;;;;;5035126;28;20089;-69
2022/09/26 13:35:27;;;;;;;1.50;1.00;;;9.80;99.90;;;;;;5026807;28;20154;-69
2022/09/26 13:38:14;;;;;;;2.30;1.38;;;9.90;99.90;;;;;;5027274;28;20528;-69
2022/09/26 13:40:59;;;;;;;3.50;1.30;;;9.90;99.90;;;;;;5029857;28;20193;-68
2022/09/26 13:43:33;;;;;;;2.47;1.38;;;9.90;99.90;;;;;;5029083;28;20099;-68
2022/09/26 13:46:30;;;;;;;1.77;1.20;;;9.90;99.90;;;;;;5032224;28;20037;-68
2022/09/26 13:49:13;;;;;;;2.03;1.20;;;9.90;99.90;;;;;;5023889;28;20667;-68